sensor_id;sensor_type;location;lat;lon;timestamp;P1;durP1;ratioP1;P2;durP2;ratioP2
69900;SDS011;57183;50.930;5.406;2023-03-01T00:02:19;10.57;;;6.63;;
69900;SDS011;57183;50.930;5.406;2023-03-01T00:04:46;13.43;;;7.15;;
69900;SDS011;57183;50.930;5.406;2023-03-01T00:07:12;11.93;;;7.47;;
69900;SDS011;57183;50.930;5.406;2023-03-01T00:09:37;8.57;;;7.07;;
69900;SDS011;57183;50.930;5.406;2023-03-01T00:12:05;8.20;;;6.60;;
69900;SDS011;57183;50.930;5.406;2023-03-01T00:14:31;10.20;;;7.47;;
69900;SDS011;57183;50.930;5.406;2023-03-01T00:16:57;13.00;;;7.70;;
69900;SDS011;57183;50.930;5.406;2023-03-01T00:19:23;11.90;;;8.23;;
69900;SDS011;57183;50.930;5.406;2023-03-01T00:21:49;12.35;;;8.60;;
69900;SDS011;57183;50.930;5.406;2023-03-01T00:24:14;13.43;;;8.48;;
69900;SDS011;57183;50.930;5.406;2023-03-01T00:26:41;17.25;;;9.82;;
69900;SDS011;57183;50.930;5.406;2023-03-01T00:29:06;9.55;;;7.57;;
69900;SDS011;57183;50.930;5.406;2023-03-01T00:31:32;10.75;;;8.02;;
69900;SDS011;57183;50.930;5.406;2023-03-01T00:33:59;11.73;;;7.90;;
69900;SDS011;57183;50.930;5.406;2023-03-01T00:36:27;9.18;;;6.97;;
69900;SDS011;57183;50.930;5.406;2023-03-01T00:38:57;9.15;;;6.57;;
69900;SDS011;57183;50.930;5.406;2023-03-01T00:41:23;9.05;;;7.38;;
69900;SDS011;57183;50.930;5.406;2023-03-01T00:43:51;10.25;;;7.18;;
69900;SDS011;57183;50.930;5.406;2023-03-01T00:46:19;9.77;;;6.80;;
69900;SDS011;57183;50.930;5.406;2023-03-01T00:48:46;9.20;;;6.80;;
69900;SDS011;57183;50.930;5.406;2023-03-01T00:51:17;10.32;;;7.47;;
69900;SDS011;57183;50.930;5.406;2023-03-01T00:53:45;11.25;;;6.75;;
69900;SDS011;57183;50.930;5.406;2023-03-01T00:56:12;11.77;;;7.55;;
69900;SDS011;57183;50.930;5.406;2023-03-01T00:58:39;9.95;;;6.78;;
69900;SDS011;57183;50.930;5.406;2023-03-01T01:01:17;11.38;;;7.13;;
69900;SDS011;57183;50.930;5.406;2023-03-01T01:03:47;10.02;;;7.38;;
69900;SDS011;57183;50.930;5.406;2023-03-01T01:06:46;8.63;;;6.43;;
69900;SDS011;57183;50.930;5.406;2023-03-01T01:09:10;11.30;;;7.45;;
69900;SDS011;57183;50.930;5.406;2023-03-01T01:14:11;11.38;;;7.22;;
69900;SDS011;57183;50.930;5.406;2023-03-01T01:16:36;10.60;;;7.82;;
69900;SDS011;57183;50.930;5.406;2023-03-01T01:19:02;10.93;;;8.15;;
69900;SDS011;57183;50.930;5.406;2023-03-01T01:21:29;10.05;;;7.45;;
69900;SDS011;57183;50.930;5.406;2023-03-01T01:23:55;8.43;;;6.88;;
69900;SDS011;57183;50.930;5.406;2023-03-01T01:26:28;12.45;;;7.32;;
69900;SDS011;57183;50.930;5.406;2023-03-01T01:28:56;9.85;;;7.45;;
69900;SDS011;57183;50.930;5.406;2023-03-01T01:31:23;11.55;;;8.00;;
69900;SDS011;57183;50.930;5.406;2023-03-01T01:33:49;12.00;;;7.47;;
69900;SDS011;57183;50.930;5.406;2023-03-01T01:36:16;10.07;;;7.78;;
69900;SDS011;57183;50.930;5.406;2023-03-01T01:38:41;11.65;;;7.40;;
69900;SDS011;57183;50.930;5.406;2023-03-01T01:41:08;9.52;;;7.00;;
69900;SDS011;57183;50.930;5.406;2023-03-01T01:43:43;9.85;;;7.72;;
69900;SDS011;57183;50.930;5.406;2023-03-01T01:46:30;9.25;;;7.68;;
69900;SDS011;57183;50.930;5.406;2023-03-01T01:49:02;12.25;;;7.85;;
69900;SDS011;57183;50.930;5.406;2023-03-01T01:51:36;8.95;;;7.85;;
69900;SDS011;57183;50.930;5.406;2023-03-01T01:54:06;10.27;;;7.47;;
69900;SDS011;57183;50.930;5.406;2023-03-01T01:56:36;11.02;;;7.93;;
69900;SDS011;57183;50.930;5.406;2023-03-01T01:59:04;11.63;;;8.50;;
69900;SDS011;57183;50.930;5.406;2023-03-01T02:01:30;10.45;;;7.85;;
69900;SDS011;57183;50.930;5.406;2023-03-01T02:03:55;10.77;;;7.85;;
69900;SDS011;57183;50.930;5.406;2023-03-01T02:06:24;9.90;;;8.02;;
69900;SDS011;57183;50.930;5.406;2023-03-01T02:09:02;12.20;;;7.70;;
69900;SDS011;57183;50.930;5.406;2023-03-01T02:11:32;8.82;;;7.45;;
69900;SDS011;57183;50.930;5.406;2023-03-01T02:13:59;9.88;;;8.02;;
69900;SDS011;57183;50.930;5.406;2023-03-01T02:16:25;13.95;;;8.18;;
69900;SDS011;57183;50.930;5.406;2023-03-01T02:18:52;10.98;;;8.10;;
69900;SDS011;57183;50.930;5.406;2023-03-01T02:24:00;10.52;;;7.70;;
69900;SDS011;57183;50.930;5.406;2023-03-01T02:29:11;9.82;;;8.75;;
69900;SDS011;57183;50.930;5.406;2023-03-01T02:31:37;14.02;;;9.65;;
69900;SDS011;57183;50.930;5.406;2023-03-01T02:34:13;11.98;;;8.18;;
69900;SDS011;57183;50.930;5.406;2023-03-01T02:36:49;14.90;;;9.13;;
69900;SDS011;57183;50.930;5.406;2023-03-01T02:39:33;13.48;;;8.25;;
69900;SDS011;57183;50.930;5.406;2023-03-01T02:42:06;10.38;;;8.15;;
69900;SDS011;57183;50.930;5.406;2023-03-01T02:44:38;9.13;;;7.70;;
69900;SDS011;57183;50.930;5.406;2023-03-01T02:47:04;12.25;;;8.32;;
69900;SDS011;57183;50.930;5.406;2023-03-01T02:49:32;16.95;;;9.13;;
69900;SDS011;57183;50.930;5.406;2023-03-01T02:52:02;14.88;;;8.73;;
69900;SDS011;57183;50.930;5.406;2023-03-01T02:54:51;10.95;;;8.57;;
69900;SDS011;57183;50.930;5.406;2023-03-01T02:57:27;12.20;;;8.60;;
69900;SDS011;57183;50.930;5.406;2023-03-01T02:59:55;13.43;;;9.13;;
69900;SDS011;57183;50.930;5.406;2023-03-01T03:02:26;14.10;;;9.18;;
69900;SDS011;57183;50.930;5.406;2023-03-01T03:05:04;17.30;;;9.23;;
69900;SDS011;57183;50.930;5.406;2023-03-01T03:07:34;11.52;;;9.07;;
69900;SDS011;57183;50.930;5.406;2023-03-01T03:10:02;12.98;;;9.32;;
69900;SDS011;57183;50.930;5.406;2023-03-01T03:12:29;13.57;;;9.05;;
69900;SDS011;57183;50.930;5.406;2023-03-01T03:14:57;12.25;;;8.70;;
69900;SDS011;57183;50.930;5.406;2023-03-01T03:17:23;12.52;;;9.07;;
69900;SDS011;57183;50.930;5.406;2023-03-01T03:19:49;12.30;;;7.88;;
69900;SDS011;57183;50.930;5.406;2023-03-01T03:22:15;11.73;;;9.70;;
69900;SDS011;57183;50.930;5.406;2023-03-01T03:24:40;16.70;;;9.27;;
69900;SDS011;57183;50.930;5.406;2023-03-01T03:27:06;14.20;;;8.85;;
69900;SDS011;57183;50.930;5.406;2023-03-01T03:29:32;14.05;;;9.60;;
69900;SDS011;57183;50.930;5.406;2023-03-01T03:31:58;11.75;;;9.88;;
69900;SDS011;57183;50.930;5.406;2023-03-01T03:34:28;14.93;;;9.63;;
69900;SDS011;57183;50.930;5.406;2023-03-01T03:36:54;12.77;;;8.63;;
69900;SDS011;57183;50.930;5.406;2023-03-01T03:39:25;15.05;;;10.18;;
69900;SDS011;57183;50.930;5.406;2023-03-01T03:41:52;14.45;;;9.93;;
69900;SDS011;57183;50.930;5.406;2023-03-01T03:44:18;17.30;;;9.75;;
69900;SDS011;57183;50.930;5.406;2023-03-01T03:46:44;13.27;;;9.40;;
69900;SDS011;57183;50.930;5.406;2023-03-01T03:49:10;11.52;;;8.70;;
69900;SDS011;57183;50.930;5.406;2023-03-01T03:51:36;12.27;;;9.55;;
69900;SDS011;57183;50.930;5.406;2023-03-01T03:54:02;17.42;;;10.85;;
69900;SDS011;57183;50.930;5.406;2023-03-01T03:56:31;13.98;;;10.20;;
69900;SDS011;57183;50.930;5.406;2023-03-01T03:58:56;13.75;;;9.00;;
69900;SDS011;57183;50.930;5.406;2023-03-01T04:01:22;12.57;;;8.85;;
69900;SDS011;57183;50.930;5.406;2023-03-01T04:03:48;10.18;;;8.98;;
69900;SDS011;57183;50.930;5.406;2023-03-01T04:06:19;13.02;;;9.80;;
69900;SDS011;57183;50.930;5.406;2023-03-01T04:08:45;12.70;;;8.80;;
69900;SDS011;57183;50.930;5.406;2023-03-01T04:11:11;17.42;;;10.60;;
69900;SDS011;57183;50.930;5.406;2023-03-01T04:13:55;17.10;;;10.63;;
69900;SDS011;57183;50.930;5.406;2023-03-01T04:16:22;12.13;;;9.15;;
69900;SDS011;57183;50.930;5.406;2023-03-01T04:18:49;15.90;;;10.23;;
69900;SDS011;57183;50.930;5.406;2023-03-01T04:21:32;11.40;;;9.25;;
69900;SDS011;57183;50.930;5.406;2023-03-01T04:23:57;16.85;;;10.73;;
69900;SDS011;57183;50.930;5.406;2023-03-01T04:26:23;12.63;;;10.40;;
69900;SDS011;57183;50.930;5.406;2023-03-01T04:28:49;15.23;;;10.10;;
69900;SDS011;57183;50.930;5.406;2023-03-01T04:31:16;14.52;;;10.55;;
69900;SDS011;57183;50.930;5.406;2023-03-01T04:33:47;15.05;;;9.90;;
69900;SDS011;57183;50.930;5.406;2023-03-01T04:36:16;15.23;;;10.27;;
69900;SDS011;57183;50.930;5.406;2023-03-01T04:38:43;14.20;;;9.50;;
69900;SDS011;57183;50.930;5.406;2023-03-01T04:41:13;15.25;;;10.95;;
69900;SDS011;57183;50.930;5.406;2023-03-01T04:43:39;16.13;;;10.07;;
69900;SDS011;57183;50.930;5.406;2023-03-01T04:46:06;12.98;;;10.25;;
69900;SDS011;57183;50.930;5.406;2023-03-01T04:48:36;13.85;;;9.90;;
69900;SDS011;57183;50.930;5.406;2023-03-01T04:51:03;14.90;;;9.48;;
69900;SDS011;57183;50.930;5.406;2023-03-01T04:53:29;13.40;;;9.65;;
69900;SDS011;57183;50.930;5.406;2023-03-01T04:55:55;15.57;;;10.25;;
69900;SDS011;57183;50.930;5.406;2023-03-01T04:58:25;13.32;;;9.13;;
69900;SDS011;57183;50.930;5.406;2023-03-01T05:00:52;12.05;;;9.13;;
69900;SDS011;57183;50.930;5.406;2023-03-01T05:03:18;15.43;;;9.40;;
69900;SDS011;57183;50.930;5.406;2023-03-01T05:05:45;14.90;;;10.13;;
69900;SDS011;57183;50.930;5.406;2023-03-01T05:08:12;14.13;;;10.00;;
69900;SDS011;57183;50.930;5.406;2023-03-01T05:10:43;17.98;;;11.43;;
69900;SDS011;57183;50.930;5.406;2023-03-01T05:13:16;13.68;;;9.98;;
69900;SDS011;57183;50.930;5.406;2023-03-01T05:15:54;15.07;;;9.82;;
69900;SDS011;57183;50.930;5.406;2023-03-01T05:18:22;16.65;;;11.05;;
69900;SDS011;57183;50.930;5.406;2023-03-01T05:20:54;13.68;;;10.68;;
69900;SDS011;57183;50.930;5.406;2023-03-01T05:23:23;12.80;;;9.52;;
69900;SDS011;57183;50.930;5.406;2023-03-01T05:25:50;16.75;;;10.60;;
69900;SDS011;57183;50.930;5.406;2023-03-01T05:28:17;15.30;;;10.65;;
69900;SDS011;57183;50.930;5.406;2023-03-01T05:30:45;18.30;;;11.50;;
69900;SDS011;57183;50.930;5.406;2023-03-01T05:33:11;18.85;;;10.38;;
69900;SDS011;57183;50.930;5.406;2023-03-01T05:35:40;17.77;;;10.70;;
69900;SDS011;57183;50.930;5.406;2023-03-01T05:38:08;14.95;;;9.50;;
69900;SDS011;57183;50.930;5.406;2023-03-01T05:40:38;20.45;;;10.88;;
69900;SDS011;57183;50.930;5.406;2023-03-01T05:43:04;17.27;;;10.40;;
69900;SDS011;57183;50.930;5.406;2023-03-01T05:45:30;17.35;;;11.45;;
69900;SDS011;57183;50.930;5.406;2023-03-01T05:47:59;20.20;;;10.65;;
69900;SDS011;57183;50.930;5.406;2023-03-01T05:50:26;18.13;;;11.55;;
69900;SDS011;57183;50.930;5.406;2023-03-01T05:53:00;15.75;;;11.38;;
69900;SDS011;57183;50.930;5.406;2023-03-01T05:55:31;17.50;;;11.32;;
69900;SDS011;57183;50.930;5.406;2023-03-01T05:58:01;17.02;;;10.00;;
69900;SDS011;57183;50.930;5.406;2023-03-01T06:00:29;16.20;;;10.82;;
69900;SDS011;57183;50.930;5.406;2023-03-01T06:02:56;16.92;;;11.10;;
69900;SDS011;57183;50.930;5.406;2023-03-01T06:05:23;20.60;;;10.77;;
69900;SDS011;57183;50.930;5.406;2023-03-01T06:07:49;16.75;;;9.82;;
69900;SDS011;57183;50.930;5.406;2023-03-01T06:10:18;14.43;;;10.68;;
69900;SDS011;57183;50.930;5.406;2023-03-01T06:12:45;17.45;;;10.90;;
69900;SDS011;57183;50.930;5.406;2023-03-01T06:15:12;16.13;;;10.85;;
69900;SDS011;57183;50.930;5.406;2023-03-01T06:17:40;13.48;;;10.38;;
69900;SDS011;57183;50.930;5.406;2023-03-01T06:20:10;16.95;;;11.30;;
69900;SDS011;57183;50.930;5.406;2023-03-01T06:22:44;16.58;;;10.85;;
69900;SDS011;57183;50.930;5.406;2023-03-01T06:25:12;18.52;;;10.77;;
69900;SDS011;57183;50.930;5.406;2023-03-01T06:27:40;16.77;;;10.32;;
69900;SDS011;57183;50.930;5.406;2023-03-01T06:30:07;21.63;;;12.05;;
69900;SDS011;57183;50.930;5.406;2023-03-01T06:32:35;16.52;;;11.65;;
69900;SDS011;57183;50.930;5.406;2023-03-01T06:35:02;16.55;;;11.95;;
69900;SDS011;57183;50.930;5.406;2023-03-01T06:37:29;19.25;;;11.45;;
69900;SDS011;57183;50.930;5.406;2023-03-01T06:39:55;19.50;;;12.43;;
69900;SDS011;57183;50.930;5.406;2023-03-01T06:42:20;20.67;;;13.48;;
69900;SDS011;57183;50.930;5.406;2023-03-01T06:44:46;19.02;;;12.95;;
69900;SDS011;57183;50.930;5.406;2023-03-01T06:47:12;17.58;;;12.10;;
69900;SDS011;57183;50.930;5.406;2023-03-01T06:49:37;20.98;;;12.27;;
69900;SDS011;57183;50.930;5.406;2023-03-01T06:52:03;17.65;;;12.15;;
69900;SDS011;57183;50.930;5.406;2023-03-01T06:54:29;25.92;;;12.15;;
69900;SDS011;57183;50.930;5.406;2023-03-01T06:56:54;19.25;;;12.93;;
69900;SDS011;57183;50.930;5.406;2023-03-01T06:59:20;25.88;;;13.30;;
69900;SDS011;57183;50.930;5.406;2023-03-01T07:01:46;19.30;;;12.52;;
69900;SDS011;57183;50.930;5.406;2023-03-01T07:04:12;15.50;;;11.82;;
69900;SDS011;57183;50.930;5.406;2023-03-01T07:06:39;13.80;;;11.43;;
69900;SDS011;57183;50.930;5.406;2023-03-01T07:09:04;23.70;;;11.05;;
69900;SDS011;57183;50.930;5.406;2023-03-01T07:11:30;14.85;;;12.23;;
69900;SDS011;57183;50.930;5.406;2023-03-01T07:13:57;19.10;;;11.38;;
69900;SDS011;57183;50.930;5.406;2023-03-01T07:16:25;19.30;;;12.88;;
69900;SDS011;57183;50.930;5.406;2023-03-01T07:18:50;18.17;;;12.75;;
69900;SDS011;57183;50.930;5.406;2023-03-01T07:21:16;19.83;;;12.77;;
69900;SDS011;57183;50.930;5.406;2023-03-01T07:23:42;29.98;;;14.73;;
69900;SDS011;57183;50.930;5.406;2023-03-01T07:26:08;35.50;;;16.95;;
69900;SDS011;57183;50.930;5.406;2023-03-01T07:28:33;40.95;;;18.25;;
69900;SDS011;57183;50.930;5.406;2023-03-01T07:31:01;40.53;;;18.52;;
69900;SDS011;57183;50.930;5.406;2023-03-01T07:33:27;47.60;;;19.33;;
69900;SDS011;57183;50.930;5.406;2023-03-01T07:35:57;39.95;;;18.58;;
69900;SDS011;57183;50.930;5.406;2023-03-01T07:38:23;28.55;;;14.73;;
69900;SDS011;57183;50.930;5.406;2023-03-01T07:40:49;25.70;;;14.20;;
69900;SDS011;57183;50.930;5.406;2023-03-01T07:43:15;27.08;;;14.57;;
69900;SDS011;57183;50.930;5.406;2023-03-01T07:45:40;23.92;;;13.57;;
69900;SDS011;57183;50.930;5.406;2023-03-01T07:48:06;18.17;;;12.00;;
69900;SDS011;57183;50.930;5.406;2023-03-01T07:50:32;17.52;;;11.27;;
69900;SDS011;57183;50.930;5.406;2023-03-01T07:52:57;20.70;;;12.27;;
69900;SDS011;57183;50.930;5.406;2023-03-01T07:55:23;18.17;;;11.48;;
69900;SDS011;57183;50.930;5.406;2023-03-01T07:57:49;18.80;;;11.20;;
69900;SDS011;57183;50.930;5.406;2023-03-01T08:00:14;15.18;;;11.02;;
69900;SDS011;57183;50.930;5.406;2023-03-01T08:02:40;17.42;;;11.52;;
69900;SDS011;57183;50.930;5.406;2023-03-01T08:05:07;15.18;;;11.52;;
69900;SDS011;57183;50.930;5.406;2023-03-01T08:07:34;13.50;;;10.35;;
69900;SDS011;57183;50.930;5.406;2023-03-01T08:10:00;17.17;;;10.88;;
69900;SDS011;57183;50.930;5.406;2023-03-01T08:12:26;17.23;;;10.98;;
69900;SDS011;57183;50.930;5.406;2023-03-01T08:14:53;13.65;;;11.05;;
69900;SDS011;57183;50.930;5.406;2023-03-01T08:17:19;15.43;;;9.57;;
69900;SDS011;57183;50.930;5.406;2023-03-01T08:19:44;14.60;;;11.52;;
69900;SDS011;57183;50.930;5.406;2023-03-01T08:22:10;16.42;;;10.00;;
69900;SDS011;57183;50.930;5.406;2023-03-01T08:24:36;16.98;;;11.02;;
69900;SDS011;57183;50.930;5.406;2023-03-01T08:27:02;15.82;;;11.45;;
69900;SDS011;57183;50.930;5.406;2023-03-01T08:29:29;14.20;;;10.75;;
69900;SDS011;57183;50.930;5.406;2023-03-01T08:31:56;16.80;;;10.73;;
69900;SDS011;57183;50.930;5.406;2023-03-01T08:34:22;15.90;;;10.60;;
69900;SDS011;57183;50.930;5.406;2023-03-01T08:36:47;13.90;;;10.48;;
69900;SDS011;57183;50.930;5.406;2023-03-01T08:39:15;15.25;;;10.93;;
69900;SDS011;57183;50.930;5.406;2023-03-01T08:41:43;22.50;;;10.65;;
69900;SDS011;57183;50.930;5.406;2023-03-01T08:44:09;17.52;;;11.15;;
69900;SDS011;57183;50.930;5.406;2023-03-01T08:46:37;16.85;;;10.07;;
69900;SDS011;57183;50.930;5.406;2023-03-01T08:49:06;12.82;;;9.68;;
69900;SDS011;57183;50.930;5.406;2023-03-01T08:51:32;25.33;;;9.93;;
69900;SDS011;57183;50.930;5.406;2023-03-01T08:54:02;13.18;;;9.85;;
69900;SDS011;57183;50.930;5.406;2023-03-01T08:56:32;19.83;;;10.65;;
69900;SDS011;57183;50.930;5.406;2023-03-01T08:58:58;12.35;;;9.20;;
69900;SDS011;57183;50.930;5.406;2023-03-01T09:01:24;14.98;;;9.77;;
69900;SDS011;57183;50.930;5.406;2023-03-01T09:03:50;15.23;;;10.23;;
69900;SDS011;57183;50.930;5.406;2023-03-01T09:06:16;14.90;;;10.05;;
69900;SDS011;57183;50.930;5.406;2023-03-01T09:08:43;11.98;;;10.05;;
69900;SDS011;57183;50.930;5.406;2023-03-01T09:11:11;17.23;;;11.15;;
69900;SDS011;57183;50.930;5.406;2023-03-01T09:13:38;14.80;;;10.35;;
69900;SDS011;57183;50.930;5.406;2023-03-01T09:16:05;15.40;;;9.88;;
69900;SDS011;57183;50.930;5.406;2023-03-01T09:18:32;14.30;;;10.35;;
69900;SDS011;57183;50.930;5.406;2023-03-01T09:23:32;15.57;;;9.85;;
69900;SDS011;57183;50.930;5.406;2023-03-01T09:25:59;15.95;;;10.30;;
69900;SDS011;57183;50.930;5.406;2023-03-01T09:28:25;18.48;;;9.82;;
69900;SDS011;57183;50.930;5.406;2023-03-01T09:30:51;15.30;;;11.02;;
69900;SDS011;57183;50.930;5.406;2023-03-01T09:33:16;14.95;;;10.73;;
69900;SDS011;57183;50.930;5.406;2023-03-01T09:35:42;14.10;;;9.30;;
69900;SDS011;57183;50.930;5.406;2023-03-01T09:38:12;14.90;;;10.10;;
69900;SDS011;57183;50.930;5.406;2023-03-01T09:40:41;15.75;;;10.73;;
69900;SDS011;57183;50.930;5.406;2023-03-01T09:43:13;15.27;;;11.50;;
69900;SDS011;57183;50.930;5.406;2023-03-01T09:45:45;18.85;;;12.80;;
69900;SDS011;57183;50.930;5.406;2023-03-01T09:48:18;18.83;;;10.60;;
69900;SDS011;57183;50.930;5.406;2023-03-01T09:50:49;16.75;;;11.52;;
69900;SDS011;57183;50.930;5.406;2023-03-01T09:53:17;16.17;;;10.73;;
69900;SDS011;57183;50.930;5.406;2023-03-01T10:07:10;16.35;;;11.02;;
69900;SDS011;57183;50.930;5.406;2023-03-01T10:09:51;13.98;;;9.68;;
69900;SDS011;57183;50.930;5.406;2023-03-01T10:12:22;22.33;;;12.40;;
69900;SDS011;57183;50.930;5.406;2023-03-01T10:20:22;18.30;;;11.30;;
69900;SDS011;57183;50.930;5.406;2023-03-01T10:22:57;14.60;;;9.68;;
69900;SDS011;57183;50.930;5.406;2023-03-01T10:28:26;26.33;;;13.98;;
69900;SDS011;57183;50.930;5.406;2023-03-01T10:31:03;27.50;;;15.75;;
69900;SDS011;57183;50.930;5.406;2023-03-01T10:33:31;20.45;;;12.10;;
69900;SDS011;57183;50.930;5.406;2023-03-01T10:36:00;23.50;;;13.07;;
69900;SDS011;57183;50.930;5.406;2023-03-01T10:38:26;24.00;;;12.77;;
69900;SDS011;57183;50.930;5.406;2023-03-01T10:43:48;30.50;;;15.50;;
69900;SDS011;57183;50.930;5.406;2023-03-01T10:46:26;22.77;;;13.45;;
69900;SDS011;57183;50.930;5.406;2023-03-01T10:51:29;16.48;;;11.82;;
69900;SDS011;57183;50.930;5.406;2023-03-01T10:53:55;17.35;;;12.23;;
69900;SDS011;57183;50.930;5.406;2023-03-01T10:56:21;16.98;;;11.15;;
69900;SDS011;57183;50.930;5.406;2023-03-01T10:58:57;19.70;;;12.63;;
69900;SDS011;57183;50.930;5.406;2023-03-01T11:01:26;19.85;;;11.80;;
69900;SDS011;57183;50.930;5.406;2023-03-01T11:04:08;22.38;;;13.65;;
69900;SDS011;57183;50.930;5.406;2023-03-01T11:06:37;27.08;;;13.40;;
69900;SDS011;57183;50.930;5.406;2023-03-01T11:11:51;17.77;;;12.45;;
69900;SDS011;57183;50.930;5.406;2023-03-01T11:14:22;19.70;;;11.80;;
69900;SDS011;57183;50.930;5.406;2023-03-01T11:19:42;15.90;;;10.65;;
69900;SDS011;57183;50.930;5.406;2023-03-01T11:22:24;13.65;;;10.57;;
69900;SDS011;57183;50.930;5.406;2023-03-01T11:24:50;17.45;;;11.07;;
69900;SDS011;57183;50.930;5.406;2023-03-01T11:27:21;17.40;;;10.52;;
69900;SDS011;57183;50.930;5.406;2023-03-01T11:30:05;19.45;;;10.75;;
69900;SDS011;57183;50.930;5.406;2023-03-01T11:32:53;14.00;;;10.30;;
69900;SDS011;57183;50.930;5.406;2023-03-01T11:35:29;13.90;;;9.98;;
69900;SDS011;57183;50.930;5.406;2023-03-01T11:40:35;16.30;;;10.68;;
69900;SDS011;57183;50.930;5.406;2023-03-01T11:46:08;16.98;;;11.65;;
69900;SDS011;57183;50.930;5.406;2023-03-01T12:14:21;16.27;;;10.60;;
69900;SDS011;57183;50.930;5.406;2023-03-01T12:41:11;14.23;;;9.32;;
69900;SDS011;57183;50.930;5.406;2023-03-01T12:46:33;15.98;;;11.57;;
69900;SDS011;57183;50.930;5.406;2023-03-01T12:52:16;15.32;;;10.13;;
69900;SDS011;57183;50.930;5.406;2023-03-01T12:54:56;13.70;;;9.93;;
69900;SDS011;57183;50.930;5.406;2023-03-01T12:57:27;13.15;;;10.85;;
69900;SDS011;57183;50.930;5.406;2023-03-01T13:02:45;16.40;;;10.50;;
69900;SDS011;57183;50.930;5.406;2023-03-01T13:11:03;13.45;;;9.85;;
69900;SDS011;57183;50.930;5.406;2023-03-01T13:13:31;16.52;;;10.38;;
69900;SDS011;57183;50.930;5.406;2023-03-01T13:15:57;16.13;;;11.45;;
69900;SDS011;57183;50.930;5.406;2023-03-01T13:18:43;14.40;;;10.05;;
69900;SDS011;57183;50.930;5.406;2023-03-01T13:21:08;13.45;;;10.00;;
69900;SDS011;57183;50.930;5.406;2023-03-01T13:23:35;15.27;;;10.48;;
69900;SDS011;57183;50.930;5.406;2023-03-01T13:26:13;12.77;;;10.07;;
69900;SDS011;57183;50.930;5.406;2023-03-01T13:33:45;12.38;;;9.02;;
69900;SDS011;57183;50.930;5.406;2023-03-01T13:36:46;15.10;;;9.15;;
69900;SDS011;57183;50.930;5.406;2023-03-01T13:39:05;14.27;;;8.73;;
69900;SDS011;57183;50.930;5.406;2023-03-01T13:42:03;14.90;;;9.00;;
69900;SDS011;57183;50.930;5.406;2023-03-01T13:44:49;17.52;;;10.52;;
69900;SDS011;57183;50.930;5.406;2023-03-01T13:47:16;10.93;;;8.55;;
69900;SDS011;57183;50.930;5.406;2023-03-01T13:49:44;11.32;;;7.70;;
69900;SDS011;57183;50.930;5.406;2023-03-01T13:52:24;23.88;;;9.15;;
69900;SDS011;57183;50.930;5.406;2023-03-01T13:57:39;14.35;;;9.60;;
69900;SDS011;57183;50.930;5.406;2023-03-01T14:00:07;14.00;;;9.07;;
69900;SDS011;57183;50.930;5.406;2023-03-01T14:03:09;16.83;;;11.35;;
69900;SDS011;57183;50.930;5.406;2023-03-01T14:05:56;20.38;;;11.10;;
69900;SDS011;57183;50.930;5.406;2023-03-01T14:08:27;15.70;;;11.00;;
69900;SDS011;57183;50.930;5.406;2023-03-01T14:21:45;16.38;;;10.10;;
69900;SDS011;57183;50.930;5.406;2023-03-01T14:24:18;12.45;;;10.13;;
69900;SDS011;57183;50.930;5.406;2023-03-01T14:26:46;15.52;;;8.80;;
69900;SDS011;57183;50.930;5.406;2023-03-01T14:29:33;13.32;;;8.77;;
69900;SDS011;57183;50.930;5.406;2023-03-01T14:34:53;11.10;;;7.93;;
69900;SDS011;57183;50.930;5.406;2023-03-01T14:37:31;18.10;;;9.23;;
69900;SDS011;57183;50.930;5.406;2023-03-01T14:39:59;15.95;;;9.32;;
69900;SDS011;57183;50.930;5.406;2023-03-01T14:42:27;12.38;;;7.95;;
69900;SDS011;57183;50.930;5.406;2023-03-01T14:44:56;14.07;;;8.80;;
69900;SDS011;57183;50.930;5.406;2023-03-01T14:47:41;12.82;;;9.20;;
69900;SDS011;57183;50.930;5.406;2023-03-01T14:52:41;10.52;;;7.97;;
69900;SDS011;57183;50.930;5.406;2023-03-01T14:55:19;15.15;;;9.02;;
69900;SDS011;57183;50.930;5.406;2023-03-01T14:57:48;14.70;;;9.80;;
69900;SDS011;57183;50.930;5.406;2023-03-01T15:00:16;15.75;;;10.07;;
69900;SDS011;57183;50.930;5.406;2023-03-01T15:02:48;16.13;;;10.85;;
69900;SDS011;57183;50.930;5.406;2023-03-01T15:05:18;16.33;;;11.93;;
69900;SDS011;57183;50.930;5.406;2023-03-01T15:07:54;21.58;;;13.13;;
69900;SDS011;57183;50.930;5.406;2023-03-01T15:10:22;12.68;;;10.32;;
69900;SDS011;57183;50.930;5.406;2023-03-01T15:12:55;17.48;;;11.38;;
69900;SDS011;57183;50.930;5.406;2023-03-01T15:15:23;14.27;;;9.30;;
69900;SDS011;57183;50.930;5.406;2023-03-01T15:18:00;13.40;;;9.60;;
69900;SDS011;57183;50.930;5.406;2023-03-01T15:20:29;15.38;;;10.20;;
69900;SDS011;57183;50.930;5.406;2023-03-01T15:23:00;14.02;;;9.02;;
69900;SDS011;57183;50.930;5.406;2023-03-01T15:25:27;11.38;;;8.40;;
69900;SDS011;57183;50.930;5.406;2023-03-01T15:27:55;8.65;;;7.15;;
69900;SDS011;57183;50.930;5.406;2023-03-01T15:30:26;11.48;;;7.28;;
69900;SDS011;57183;50.930;5.406;2023-03-01T15:35:50;13.63;;;8.38;;
69900;SDS011;57183;50.930;5.406;2023-03-01T15:38:27;12.63;;;7.15;;
69900;SDS011;57183;50.930;5.406;2023-03-01T15:41:00;11.20;;;7.90;;
69900;SDS011;57183;50.930;5.406;2023-03-01T15:46:38;10.68;;;7.78;;
69900;SDS011;57183;50.930;5.406;2023-03-01T15:49:05;12.60;;;7.47;;
69900;SDS011;57183;50.930;5.406;2023-03-01T15:52:10;10.75;;;8.63;;
69900;SDS011;57183;50.930;5.406;2023-03-01T15:55:01;15.98;;;9.43;;
69900;SDS011;57183;50.930;5.406;2023-03-01T15:57:29;15.77;;;10.38;;
69900;SDS011;57183;50.930;5.406;2023-03-01T15:59:54;14.93;;;8.82;;
69900;SDS011;57183;50.930;5.406;2023-03-01T16:02:21;10.18;;;7.85;;
69900;SDS011;57183;50.930;5.406;2023-03-01T16:04:48;8.73;;;7.15;;
69900;SDS011;57183;50.930;5.406;2023-03-01T16:07:13;9.43;;;6.95;;
69900;SDS011;57183;50.930;5.406;2023-03-01T16:09:39;10.73;;;6.65;;
69900;SDS011;57183;50.930;5.406;2023-03-01T16:12:08;13.60;;;7.53;;
69900;SDS011;57183;50.930;5.406;2023-03-01T16:14:39;16.17;;;10.13;;
69900;SDS011;57183;50.930;5.406;2023-03-01T16:17:05;11.18;;;6.82;;
69900;SDS011;57183;50.930;5.406;2023-03-01T16:19:32;10.52;;;7.35;;
69900;SDS011;57183;50.930;5.406;2023-03-01T16:21:58;7.65;;;6.05;;
69900;SDS011;57183;50.930;5.406;2023-03-01T16:24:24;6.15;;;5.00;;
69900;SDS011;57183;50.930;5.406;2023-03-01T16:26:51;11.95;;;5.95;;
69900;SDS011;57183;50.930;5.406;2023-03-01T16:29:16;8.82;;;7.10;;
69900;SDS011;57183;50.930;5.406;2023-03-01T16:31:42;10.65;;;7.18;;
69900;SDS011;57183;50.930;5.406;2023-03-01T16:34:08;9.27;;;7.47;;
69900;SDS011;57183;50.930;5.406;2023-03-01T16:36:33;24.13;;;12.40;;
69900;SDS011;57183;50.930;5.406;2023-03-01T16:38:59;22.45;;;11.55;;
69900;SDS011;57183;50.930;5.406;2023-03-01T16:41:25;23.58;;;12.68;;
69900;SDS011;57183;50.930;5.406;2023-03-01T16:43:52;25.77;;;17.40;;
69900;SDS011;57183;50.930;5.406;2023-03-01T16:46:19;17.85;;;10.30;;
69900;SDS011;57183;50.930;5.406;2023-03-01T16:48:47;44.55;;;22.17;;
69900;SDS011;57183;50.930;5.406;2023-03-01T16:51:13;30.20;;;14.82;;
69900;SDS011;57183;50.930;5.406;2023-03-01T16:53:40;21.83;;;12.68;;
69900;SDS011;57183;50.930;5.406;2023-03-01T16:56:07;33.35;;;16.35;;
69900;SDS011;57183;50.930;5.406;2023-03-01T16:58:37;34.83;;;17.17;;
69900;SDS011;57183;50.930;5.406;2023-03-01T17:01:06;16.08;;;10.00;;
69900;SDS011;57183;50.930;5.406;2023-03-01T17:03:33;15.98;;;9.98;;